createdAt,value
2023-04-10T00:01:16.928Z,83.49
2023-04-10T00:03:44.782Z,84.16
2023-04-10T00:06:13.870Z,84.74
2023-04-10T00:08:41.606Z,85.28
2023-04-10T00:11:09.173Z,85.08
2023-04-10T00:13:36.767Z,85.68
2023-04-10T00:16:04.537Z,84.00
2023-04-10T00:18:32.149Z,84.07
2023-04-10T00:20:59.687Z,84.15
2023-04-10T00:23:28.628Z,83.98
2023-04-10T00:25:56.199Z,84.88
2023-04-10T00:28:23.779Z,83.76
2023-04-10T00:30:51.381Z,84.46
2023-04-10T00:33:19.009Z,84.26
2023-04-10T00:35:46.878Z,85.31
2023-04-10T00:38:14.489Z,84.98
2023-04-10T00:40:43.394Z,84.86
2023-04-10T00:43:11.176Z,84.65
2023-04-10T00:45:39.522Z,84.49
2023-04-10T00:48:07.538Z,84.92
2023-04-10T00:50:35.448Z,85.89
2023-04-10T00:53:04.212Z,84.66
2023-04-10T00:55:31.770Z,84.85
2023-04-10T00:58:00.938Z,84.97
2023-04-10T01:00:28.705Z,84.99
2023-04-10T01:02:56.915Z,84.16
2023-04-10T01:05:26.607Z,85.71
2023-04-10T01:08:06.074Z,86.17
2023-04-10T01:10:39.579Z,85.30
2023-04-10T01:13:16.832Z,85.11
2023-04-10T01:15:50.347Z,85.14
2023-04-10T01:18:25.416Z,85.41
2023-04-10T01:20:53.063Z,86.22
2023-04-10T01:23:39.720Z,86.06
2023-04-10T01:26:09.707Z,86.42
2023-04-10T01:29:02.302Z,86.32
2023-04-10T01:31:37.587Z,86.22
2023-04-10T01:34:09.215Z,86.13
2023-04-10T01:36:42.017Z,86.62
2023-04-10T01:39:11.291Z,87.13
2023-04-10T01:41:42.710Z,86.28
2023-04-10T01:44:15.573Z,87.53
2023-04-10T01:46:45.341Z,86.61
2023-04-10T01:49:15.289Z,87.62
2023-04-10T01:51:45.054Z,87.31
2023-04-10T01:54:14.150Z,87.25
2023-04-10T01:56:42.115Z,86.69
2023-04-10T01:59:10.572Z,86.09
2023-04-10T02:01:39.574Z,86.27
2023-04-10T02:04:07.195Z,87.45
2023-04-10T02:06:46.025Z,86.02
2023-04-10T02:09:24.351Z,87.14
2023-04-10T02:11:56.897Z,87.03
2023-04-10T02:14:29.249Z,87.17
2023-04-10T02:16:58.557Z,87.85
2023-04-10T02:19:29.288Z,87.01
2023-04-10T02:21:57.964Z,87.87
2023-04-10T02:24:25.771Z,88.04
2023-04-10T02:26:54.746Z,88.00
2023-04-10T02:29:23.916Z,88.57
2023-04-10T02:31:51.681Z,88.95
2023-04-10T02:34:21.540Z,88.33
2023-04-10T02:36:49.158Z,90.07
2023-04-10T02:39:16.751Z,89.69
2023-04-10T02:41:50.647Z,88.84
2023-04-10T02:44:18.980Z,89.34
2023-04-10T02:46:47.082Z,89.61
2023-04-10T02:49:15.452Z,89.38
2023-04-10T02:51:44.419Z,89.33
2023-04-10T02:54:12.106Z,89.67
2023-04-10T02:56:41.766Z,89.38
2023-04-10T02:59:09.556Z,89.47
2023-04-10T03:01:39.327Z,89.73
2023-04-10T03:04:07.567Z,89.62
2023-04-10T03:06:39.555Z,89.33
2023-04-10T03:09:08.858Z,89.44
2023-04-10T03:11:36.514Z,89.38
2023-04-10T03:14:04.189Z,88.97
2023-04-10T03:16:31.903Z,89.34
2023-04-10T03:19:00.331Z,88.86
2023-04-10T03:21:28.633Z,89.09
2023-04-10T03:23:56.304Z,89.02
2023-04-10T03:26:25.268Z,89.33
2023-04-10T03:28:53.319Z,89.22
2023-04-10T03:31:21.220Z,89.53
2023-04-10T03:33:48.906Z,89.74
2023-04-10T03:36:16.934Z,88.81
2023-04-10T03:38:44.853Z,89.78
2023-04-10T03:41:12.419Z,89.34
2023-04-10T03:43:42.806Z,90.11
2023-04-10T03:46:10.709Z,89.91
2023-04-10T03:48:42.952Z,89.67
2023-04-10T03:51:11.304Z,89.39
2023-04-10T03:53:38.937Z,89.46
2023-04-10T03:56:11.262Z,89.46
2023-04-10T03:58:38.927Z,89.45
2023-04-10T04:01:08.348Z,89.05
2023-04-10T04:03:52.926Z,89.12
2023-04-10T04:06:29.094Z,89.30
2023-04-10T04:09:11.789Z,88.86
2023-04-10T04:11:57.899Z,89.23
2023-04-10T04:14:47.658Z,89.30
2023-04-10T04:17:19.639Z,89.74
2023-04-10T04:19:56.693Z,88.97
2023-04-10T04:22:24.304Z,89.04
2023-04-10T04:25:27.105Z,89.15
2023-04-10T04:28:13.707Z,89.43
2023-04-10T04:31:02.447Z,88.89
2023-04-10T04:34:03.546Z,90.54
2023-04-10T04:36:47.801Z,90.24
2023-04-10T04:39:34.908Z,89.40
2023-04-10T04:42:02.419Z,89.41
2023-04-10T04:45:01.541Z,89.68
2023-04-10T04:47:58.429Z,89.03
2023-04-10T04:50:53.436Z,89.94
2023-04-10T04:53:41.241Z,89.77
2023-04-10T04:56:17.144Z,89.78
2023-04-10T04:58:44.660Z,89.93
2023-04-10T05:01:33.628Z,89.88
2023-04-10T05:04:20.504Z,90.14
2023-04-10T05:07:08.124Z,90.75
2023-04-10T05:09:52.140Z,90.13
2023-04-10T05:12:38.290Z,89.64
2023-04-10T05:15:21.739Z,90.50
2023-04-10T05:18:04.994Z,90.34
2023-04-10T05:20:51.186Z,90.21
2023-04-10T05:23:27.698Z,90.74
2023-04-10T05:26:15.696Z,89.63
2023-04-10T05:29:06.264Z,91.00
2023-04-10T05:31:46.434Z,91.18
2023-04-10T05:34:37.884Z,89.57
2023-04-10T05:37:12.928Z,89.63
2023-04-10T05:39:50.095Z,89.17
2023-04-10T05:42:34.513Z,90.30
2023-04-10T05:45:14.862Z,90.94
2023-04-10T05:48:01.296Z,89.97
2023-04-10T05:50:55.011Z,88.83
2023-04-10T05:53:41.180Z,88.93
2023-04-10T05:56:28.699Z,88.35
2023-04-10T05:59:15.361Z,88.12
2023-04-10T06:01:59.513Z,88.98
2023-04-10T06:04:27.246Z,93.33
2023-04-10T06:06:58.180Z,89.21
2023-04-10T06:09:25.748Z,86.98
2023-04-10T06:11:54.796Z,86.96
2023-04-10T06:14:24.100Z,86.14
2023-04-10T06:16:52.485Z,85.04
2023-04-10T06:19:20.005Z,84.96
2023-04-10T06:21:47.754Z,83.00
2023-04-10T06:24:15.740Z,81.66
2023-04-10T06:26:43.372Z,80.98
2023-04-10T06:29:12.388Z,78.15
2023-04-10T06:31:40.119Z,76.93
2023-04-10T06:34:08.342Z,73.25
2023-04-10T06:36:38.548Z,71.49
2023-04-10T06:39:07.654Z,71.60
2023-04-10T06:41:35.361Z,70.72
2023-04-10T06:44:15.999Z,69.57
2023-04-10T06:46:43.579Z,68.90
2023-04-10T06:49:11.288Z,66.75
2023-04-10T06:51:38.855Z,67.41
2023-04-10T06:54:06.427Z,65.66
2023-04-10T06:56:33.965Z,65.33
2023-04-10T06:59:01.569Z,64.63
2023-04-10T07:01:30.526Z,64.56
2023-04-10T07:03:58.286Z,64.02
2023-04-10T07:06:26.155Z,63.60
2023-04-10T07:08:53.983Z,61.85
2023-04-10T07:11:21.650Z,59.54
2023-04-10T07:13:53.752Z,60.48
2023-04-10T07:16:21.730Z,58.53
2023-04-10T07:18:50.878Z,58.29
2023-04-10T07:21:18.551Z,58.19
2023-04-10T07:23:46.219Z,56.89
2023-04-10T07:26:14.174Z,57.44
2023-04-10T07:28:41.812Z,57.83
2023-04-10T07:31:10.464Z,56.28
2023-04-10T07:33:38.272Z,56.79
2023-04-10T07:36:08.361Z,57.33
2023-04-10T07:38:35.981Z,56.13
2023-04-10T07:41:03.563Z,55.54
2023-04-10T07:43:31.168Z,55.30
2023-04-10T07:45:59.029Z,53.92
2023-04-10T07:48:26.730Z,54.76
2023-04-10T07:50:54.260Z,54.38
2023-04-10T07:53:23.168Z,55.13
2023-04-10T07:55:51.082Z,53.91
2023-04-10T07:58:18.644Z,53.31
2023-04-10T08:00:46.320Z,53.01
2023-04-10T08:03:14.143Z,53.73
2023-04-10T08:05:41.908Z,51.67
2023-04-10T08:08:09.447Z,49.46
2023-04-10T08:10:39.049Z,50.73
2023-04-10T08:13:06.988Z,49.59
2023-04-10T08:15:34.625Z,45.71
2023-04-10T08:18:02.259Z,44.69
2023-04-10T08:20:29.977Z,44.13
2023-04-10T08:23:03.093Z,43.98
2023-04-10T08:25:33.908Z,43.18
2023-04-10T08:28:02.791Z,43.19
2023-04-10T08:30:30.367Z,41.14
2023-04-10T08:32:57.901Z,41.31
2023-04-10T08:35:25.538Z,41.31
2023-04-10T08:38:11.798Z,40.88
2023-04-10T08:40:41.436Z,41.21
2023-04-10T08:43:10.519Z,40.66
2023-04-10T08:45:38.215Z,40.81
2023-04-10T08:48:06.903Z,40.25
2023-04-10T08:50:36.205Z,39.82
2023-04-10T08:53:09.700Z,40.48
2023-04-10T08:55:37.715Z,39.63
2023-04-10T08:58:05.714Z,39.04
2023-04-10T09:00:38.544Z,39.52
2023-04-10T09:03:08.423Z,38.90
2023-04-10T09:05:36.880Z,38.58
2023-04-10T09:08:04.520Z,38.44
2023-04-10T09:10:32.312Z,37.76
2023-04-10T09:13:00.049Z,38.08
2023-04-10T09:15:27.615Z,38.14
2023-04-10T09:18:01.920Z,37.06
2023-04-10T09:20:31.471Z,37.08
2023-04-10T09:22:59.198Z,37.63
2023-04-10T09:25:32.641Z,36.85
2023-04-10T09:28:03.770Z,36.23
2023-04-10T09:30:39.852Z,36.84
2023-04-10T09:33:27.414Z,36.65
2023-04-10T09:35:58.236Z,35.97
2023-04-10T09:38:25.894Z,36.19
2023-04-10T09:40:54.748Z,35.45
2023-04-10T09:43:24.387Z,34.95
2023-04-10T09:45:54.351Z,34.93
2023-04-10T09:48:24.841Z,35.91
2023-04-10T09:50:52.443Z,33.97
2023-04-10T09:53:22.427Z,33.86
2023-04-10T09:55:51.261Z,33.92
2023-04-10T09:58:19.790Z,34.12
2023-04-10T10:00:49.681Z,33.71
2023-04-10T10:03:18.847Z,32.51
2023-04-10T10:05:49.789Z,32.54
2023-04-10T10:08:17.794Z,32.79
2023-04-10T10:10:47.956Z,33.52
2023-04-10T10:13:18.889Z,32.30
2023-04-10T10:15:52.978Z,31.92
2023-04-10T10:18:27.081Z,31.38
2023-04-10T10:20:56.122Z,31.28
2023-04-10T10:23:24.739Z,31.92
2023-04-10T10:25:55.057Z,32.07
2023-04-10T10:28:24.690Z,32.04
2023-04-10T10:30:52.900Z,31.86
2023-04-10T10:33:20.811Z,30.86
2023-04-10T10:35:49.994Z,32.58
2023-04-10T10:38:19.976Z,33.47
2023-04-10T10:40:58.713Z,31.46
2023-04-10T10:43:35.392Z,30.21
2023-04-10T10:46:05.257Z,30.47
2023-04-10T10:48:32.876Z,29.65
2023-04-10T10:51:02.644Z,30.47
2023-04-10T10:53:37.028Z,32.99
2023-04-10T10:56:36.662Z,31.01
2023-04-10T10:59:04.489Z,29.16
2023-04-10T11:01:32.161Z,29.21
2023-04-10T11:04:01.259Z,27.64
2023-04-10T11:06:52.280Z,27.60
2023-04-10T11:09:50.523Z,26.92
2023-04-10T11:12:20.605Z,28.78
2023-04-10T11:14:58.545Z,26.61
2023-04-10T11:17:48.658Z,27.18
2023-04-10T11:20:16.672Z,25.66
2023-04-10T11:23:10.888Z,25.34
2023-04-10T11:25:51.192Z,27.20
2023-04-10T11:28:38.673Z,24.72
2023-04-10T11:31:18.647Z,24.46
2023-04-10T11:33:47.533Z,23.73
2023-04-10T11:36:18.042Z,23.32
2023-04-10T11:38:58.401Z,22.81
2023-04-10T11:41:32.375Z,23.20
2023-04-10T11:44:01.367Z,23.68
2023-04-10T11:46:29.500Z,22.68
2023-04-10T11:48:59.487Z,21.77
2023-04-10T11:51:28.223Z,22.95
2023-04-10T11:54:06.389Z,21.29
2023-04-10T11:56:36.208Z,20.53
2023-04-10T11:59:07.456Z,20.83
2023-04-10T12:01:35.383Z,20.74
2023-04-10T12:04:03.539Z,21.52
2023-04-10T12:06:31.762Z,22.37
2023-04-10T12:08:59.388Z,20.52
2023-04-10T12:11:28.753Z,20.78
2023-04-10T12:13:58.921Z,21.10
2023-04-10T12:16:27.251Z,21.33
2023-04-10T12:18:55.682Z,21.57
2023-04-10T12:21:23.333Z,21.42
2023-04-10T12:23:52.048Z,20.91
2023-04-10T12:26:19.833Z,20.52
2023-04-10T12:28:53.568Z,20.05
2023-04-10T12:31:29.537Z,19.84
2023-04-10T12:33:57.777Z,20.42
2023-04-10T12:36:29.169Z,20.73
2023-04-10T12:38:57.306Z,19.22
2023-04-10T12:41:26.923Z,19.96
2023-04-10T12:44:07.320Z,20.53
2023-04-10T12:46:36.926Z,19.79
2023-04-10T12:49:12.240Z,19.61
2023-04-10T12:51:43.578Z,18.42
2023-04-10T12:54:11.327Z,18.32
2023-04-10T12:56:43.005Z,17.75
2023-04-10T12:59:10.736Z,18.15
2023-04-10T13:01:40.432Z,18.03
2023-04-10T13:04:08.250Z,17.70
2023-04-10T13:06:43.807Z,18.23
2023-04-10T13:09:11.992Z,18.84
2023-04-10T13:11:39.667Z,18.23
2023-04-10T13:14:07.288Z,17.68
2023-04-10T13:16:34.962Z,18.69
2023-04-10T13:19:04.003Z,18.62
2023-04-10T13:21:31.590Z,19.76
2023-04-10T13:24:00.315Z,20.51
2023-04-10T13:26:28.065Z,21.01
2023-04-10T13:28:56.045Z,21.39
2023-04-10T13:31:23.971Z,22.30
2023-04-10T13:33:51.527Z,23.56
2023-04-10T13:36:20.568Z,23.73
2023-04-10T13:38:48.262Z,22.87
2023-04-10T13:41:16.329Z,22.54
2023-04-10T13:43:43.853Z,22.71
2023-04-10T13:46:11.391Z,21.78
2023-04-10T13:48:41.276Z,21.89
2023-04-10T13:51:09.442Z,21.19
2023-04-10T13:53:38.317Z,21.45
2023-04-10T13:56:06.778Z,21.86
2023-04-10T13:58:34.350Z,20.37
2023-04-10T14:01:02.454Z,21.79
2023-04-10T14:03:30.156Z,20.26
2023-04-10T14:05:57.755Z,20.14
2023-04-10T14:08:25.262Z,20.55
2023-04-10T14:10:54.249Z,21.02
2023-04-10T14:13:21.784Z,20.59
2023-04-10T14:15:51.946Z,21.00
2023-04-10T14:18:19.727Z,21.30
2023-04-10T14:20:47.380Z,21.49
2023-04-10T14:23:18.019Z,21.87
2023-04-10T14:25:45.771Z,22.52
2023-04-10T14:28:17.710Z,21.02
2023-04-10T14:30:45.505Z,22.19
2023-04-10T14:33:13.144Z,21.43
2023-04-10T14:35:40.849Z,22.05
2023-04-10T14:38:08.543Z,22.18
2023-04-10T14:40:37.132Z,22.75
2023-04-10T14:43:04.799Z,22.33
2023-04-10T14:45:33.910Z,22.47
2023-04-10T14:48:02.326Z,21.63
2023-04-10T14:50:32.524Z,20.61
2023-04-10T14:53:00.710Z,21.34
2023-04-10T14:55:30.083Z,21.63
2023-04-10T14:57:58.868Z,20.83
2023-04-10T15:00:26.895Z,22.44
2023-04-10T15:02:57.186Z,22.37
2023-04-10T15:05:26.514Z,23.58
2023-04-10T15:07:54.148Z,22.21
2023-04-10T15:10:21.904Z,21.90
2023-04-10T15:12:49.436Z,22.87
2023-04-10T15:15:18.742Z,23.60
2023-04-10T15:17:46.458Z,24.51
2023-04-10T15:20:15.471Z,24.03
2023-04-10T15:22:44.940Z,25.00
2023-04-10T15:25:12.760Z,25.73
2023-04-10T15:27:40.375Z,25.97
2023-04-10T15:30:08.815Z,26.13
2023-04-10T15:32:38.314Z,26.35
2023-04-10T15:35:06.744Z,26.58
2023-04-10T15:37:37.394Z,26.59
2023-04-10T15:40:06.114Z,26.85
2023-04-10T15:42:33.781Z,26.91
2023-04-10T15:45:01.401Z,27.25
2023-04-10T15:47:28.997Z,27.74
2023-04-10T15:49:57.553Z,27.47
2023-04-10T15:52:25.175Z,28.19
2023-04-10T15:54:54.047Z,28.66
2023-04-10T15:57:22.009Z,28.78
2023-04-10T15:59:52.396Z,29.38
2023-04-10T16:02:20.495Z,30.14
2023-04-10T16:04:48.210Z,30.47
2023-04-10T16:07:15.952Z,30.67
2023-04-10T16:09:43.560Z,30.98
2023-04-10T16:16:25.673Z,30.40
2023-04-10T16:18:54.229Z,30.25
2023-04-10T16:21:22.167Z,30.39
2023-04-10T16:23:49.866Z,30.46
2023-04-10T16:26:18.471Z,30.18
2023-04-10T16:28:46.224Z,30.38
2023-04-10T16:31:13.867Z,30.56
2023-04-10T16:33:42.948Z,30.33
2023-04-10T16:36:11.007Z,29.94
2023-04-10T16:38:38.576Z,30.18
2023-04-10T16:41:07.081Z,30.99
2023-04-10T16:43:34.806Z,31.08
2023-04-10T16:46:02.551Z,31.59
2023-04-10T16:48:30.291Z,31.98
2023-04-10T16:51:05.686Z,32.76
2023-04-10T16:53:35.575Z,32.91
2023-04-10T16:56:05.205Z,33.05
2023-04-10T16:58:34.127Z,33.92
2023-04-10T17:01:01.761Z,34.67
2023-04-10T17:03:29.390Z,35.36
2023-04-10T17:05:56.968Z,35.71
2023-04-10T17:08:25.896Z,35.61
2023-04-10T17:10:53.610Z,35.91
2023-04-10T17:13:21.205Z,36.51
2023-04-10T17:15:48.743Z,36.56
2023-04-10T17:18:16.427Z,37.25
2023-04-10T17:20:44.241Z,37.91
2023-04-10T17:23:12.696Z,38.46
2023-04-10T17:25:42.151Z,39.09
2023-04-10T17:28:09.711Z,40.23
2023-04-10T17:30:37.292Z,39.92
2023-04-10T17:33:04.951Z,40.08
2023-04-10T17:35:32.532Z,41.56
2023-04-10T17:38:00.130Z,40.86
2023-04-10T17:40:28.821Z,40.82
2023-04-10T17:42:57.827Z,40.73
2023-04-10T17:45:25.363Z,41.18
2023-04-10T17:47:52.912Z,41.06
2023-04-10T17:50:20.530Z,41.42
2023-04-10T17:52:48.134Z,41.75
2023-04-10T17:55:20.629Z,42.06
2023-04-10T17:57:49.019Z,41.95
2023-04-10T18:00:20.673Z,43.16
2023-04-10T18:02:49.156Z,42.90
2023-04-10T18:05:16.807Z,43.26
2023-04-10T18:07:44.400Z,43.28
2023-04-10T18:10:12.493Z,44.03
2023-04-10T18:12:41.428Z,44.92
2023-04-10T18:15:10.211Z,45.37
2023-04-10T18:17:39.635Z,44.57
2023-04-10T18:20:07.789Z,46.15
2023-04-10T18:22:35.455Z,46.47
2023-04-10T18:25:03.143Z,46.96
2023-04-10T18:27:31.716Z,47.79
2023-04-10T18:29:59.318Z,48.46
2023-04-10T18:32:26.905Z,49.54
2023-04-10T18:34:55.844Z,49.16
2023-04-10T18:37:23.367Z,49.67
2023-04-10T18:39:50.946Z,50.01
2023-04-10T18:42:18.576Z,50.13
2023-04-10T18:44:46.216Z,50.62
2023-04-10T18:47:14.075Z,50.92
2023-04-10T18:49:41.721Z,51.91
2023-04-10T18:52:10.689Z,51.53
2023-04-10T18:54:39.022Z,52.14
2023-04-10T18:57:07.517Z,51.75
2023-04-10T18:59:35.068Z,52.83
2023-04-10T19:02:02.975Z,54.27
2023-04-10T19:04:30.752Z,53.57
2023-04-10T19:06:58.396Z,53.23
2023-04-10T19:09:27.510Z,53.11
2023-04-10T19:11:55.021Z,53.67
2023-04-10T19:14:22.620Z,54.08
2023-04-10T19:16:50.228Z,54.00
2023-04-10T19:19:17.795Z,54.47
2023-04-10T19:21:45.341Z,55.20
2023-04-10T19:24:12.909Z,55.56
2023-04-10T19:26:41.801Z,56.08
2023-04-10T19:29:09.727Z,55.68
2023-04-10T19:31:37.337Z,55.22
2023-04-10T19:34:09.073Z,56.09
2023-04-10T19:36:37.262Z,58.05
2023-04-10T19:39:05.484Z,57.98
2023-04-10T19:41:33.054Z,57.86
2023-04-10T19:44:01.967Z,57.74
2023-04-10T19:46:29.651Z,56.85
2023-04-10T19:48:57.272Z,55.21
2023-04-10T19:51:25.054Z,53.01
2023-04-10T19:53:52.570Z,54.08
2023-04-10T19:56:21.050Z,50.05
2023-04-10T19:58:48.684Z,50.54
2023-04-10T20:01:18.063Z,49.84
2023-04-10T20:03:45.966Z,48.85
2023-04-10T20:06:13.862Z,48.52
2023-04-10T20:08:41.464Z,47.82
2023-04-10T20:11:09.520Z,47.82
2023-04-10T20:13:38.437Z,47.91
2023-04-10T20:16:07.426Z,47.46
2023-04-10T20:18:36.915Z,47.24
2023-04-10T20:21:07.510Z,47.34
2023-04-10T20:23:35.396Z,47.79
2023-04-10T20:26:02.925Z,47.38
2023-04-10T20:28:31.581Z,46.56
2023-04-10T20:31:00.019Z,46.42
2023-04-10T20:33:27.554Z,44.94
2023-04-10T20:35:56.509Z,44.12
2023-04-10T20:38:24.105Z,44.12
2023-04-10T20:40:51.634Z,43.96
2023-04-10T20:43:19.356Z,44.23
2023-04-10T20:45:46.947Z,44.47
2023-04-10T20:48:14.531Z,43.48
2023-04-10T20:50:43.620Z,44.58
2023-04-10T20:53:12.979Z,44.13
2023-04-10T20:55:40.774Z,43.82
2023-04-10T20:58:08.552Z,44.10
2023-04-10T21:00:37.085Z,44.18
2023-04-10T21:03:04.827Z,44.49
2023-04-10T21:05:32.461Z,44.72
2023-04-10T21:08:00.049Z,44.59
2023-04-10T21:10:29.037Z,45.26
2023-04-10T21:12:56.628Z,45.52
2023-04-10T21:15:24.194Z,45.76
2023-04-10T21:17:51.736Z,46.34
2023-04-10T21:20:19.433Z,46.04
2023-04-10T21:22:47.050Z,46.26
2023-04-10T21:25:14.781Z,46.64
2023-04-10T21:27:43.669Z,46.64
2023-04-10T21:30:11.904Z,46.82
2023-04-10T21:32:39.600Z,47.10
2023-04-10T21:35:08.623Z,47.34
2023-04-10T21:37:36.314Z,47.24
2023-04-10T21:40:03.992Z,47.45
2023-04-10T21:42:33.261Z,47.78
2023-04-10T21:45:02.243Z,48.09
2023-04-10T21:47:29.882Z,48.15
2023-04-10T21:49:57.467Z,48.18
2023-04-10T21:52:25.104Z,48.54
2023-04-10T21:54:53.017Z,48.47
2023-04-10T21:57:20.798Z,49.08
2023-04-10T21:59:48.337Z,48.88
2023-04-10T22:02:17.314Z,49.24
2023-04-10T22:04:53.882Z,49.22
2023-04-10T22:07:22.338Z,49.60
2023-04-10T22:09:49.955Z,49.56
2023-04-10T22:12:17.599Z,49.80
2023-04-10T22:14:45.197Z,50.25
2023-04-10T22:17:12.887Z,50.66
2023-04-10T22:19:41.840Z,50.43
2023-04-10T22:22:09.452Z,50.00
2023-04-10T22:24:37.085Z,50.17
2023-04-10T22:27:04.723Z,50.61
2023-04-10T22:29:32.440Z,50.64
2023-04-10T22:32:00.049Z,50.25
2023-04-10T22:34:27.644Z,50.34
2023-04-10T22:36:56.827Z,50.71
2023-04-10T22:39:24.434Z,50.81
2023-04-10T22:41:51.988Z,50.79
2023-04-10T22:44:19.586Z,51.19
2023-04-10T22:46:48.282Z,51.18
2023-04-10T22:49:17.016Z,50.65
2023-04-10T22:51:45.878Z,50.39
2023-04-10T22:54:15.878Z,49.65
2023-04-10T22:56:44.070Z,48.84
2023-04-10T22:59:11.820Z,48.07
2023-04-10T23:01:39.501Z,47.59
2023-04-10T23:04:07.161Z,47.61
2023-04-10T23:06:34.817Z,47.22
2023-04-10T23:09:02.367Z,47.57
2023-04-10T23:11:31.295Z,47.75
2023-04-10T23:13:58.846Z,48.30
2023-04-10T23:16:27.044Z,49.00
2023-04-10T23:18:55.000Z,51.27
2023-04-10T23:21:22.756Z,54.75
2023-04-10T23:23:50.335Z,58.58
2023-04-10T23:26:17.878Z,61.69
2023-04-10T23:28:46.777Z,65.67
2023-04-10T23:31:14.423Z,64.70
2023-04-10T23:33:42.105Z,66.35
2023-04-10T23:36:10.344Z,68.55
2023-04-10T23:38:37.923Z,69.81
2023-04-10T23:41:05.615Z,67.28
2023-04-10T23:43:33.149Z,65.82
2023-04-10T23:46:02.029Z,65.48
2023-04-10T23:48:29.591Z,67.53
2023-04-10T23:51:03.880Z,65.67
2023-04-10T23:53:31.496Z,63.57
2023-04-10T23:55:59.173Z,63.78
2023-04-10T23:58:26.902Z,64.85
